sensor_id;sensor_type;location;lat;lon;timestamp;pressure;altitude;pressure_sealevel;temperature;humidity
41862;BME280;27537;57.134;-2.136;2023-03-14T00:01:08;98388.16;;;1.61;100.00
41862;BME280;27537;57.134;-2.136;2023-03-14T00:03:35;98406.88;;;1.66;100.00
41862;BME280;27537;57.134;-2.136;2023-03-14T00:06:03;98427.41;;;1.69;100.00
41862;BME280;27537;57.134;-2.136;2023-03-14T00:08:30;98440.69;;;1.82;100.00
41862;BME280;27537;57.134;-2.136;2023-03-14T00:10:57;98399.81;;;1.49;100.00
41862;BME280;27537;57.134;-2.136;2023-03-14T00:13:26;98427.81;;;1.58;100.00
41862;BME280;27537;57.134;-2.136;2023-03-14T00:15:53;98440.38;;;1.67;100.00
41862;BME280;27537;57.134;-2.136;2023-03-14T00:18:20;98435.84;;;1.50;100.00
41862;BME280;27537;57.134;-2.136;2023-03-14T00:20:47;98418.38;;;1.35;100.00
41862;BME280;27537;57.134;-2.136;2023-03-14T00:23:13;98424.53;;;1.31;100.00
41862;BME280;27537;57.134;-2.136;2023-03-14T00:25:40;98441.19;;;1.46;100.00
41862;BME280;27537;57.134;-2.136;2023-03-14T00:28:07;98462.84;;;1.42;100.00
41862;BME280;27537;57.134;-2.136;2023-03-14T00:30:37;98471.94;;;1.50;100.00
41862;BME280;27537;57.134;-2.136;2023-03-14T00:33:04;98452.84;;;1.32;100.00
41862;BME280;27537;57.134;-2.136;2023-03-14T00:35:31;98458.00;;;1.56;100.00
41862;BME280;27537;57.134;-2.136;2023-03-14T00:37:57;98477.25;;;1.47;100.00
41862;BME280;27537;57.134;-2.136;2023-03-14T00:40:24;98462.59;;;1.48;100.00
41862;BME280;27537;57.134;-2.136;2023-03-14T00:42:51;98453.06;;;1.26;100.00
41862;BME280;27537;57.134;-2.136;2023-03-14T00:45:17;98408.63;;;0.96;100.00
41862;BME280;27537;57.134;-2.136;2023-03-14T00:47:44;98446.41;;;1.21;100.00
41862;BME280;27537;57.134;-2.136;2023-03-14T00:50:12;98475.44;;;1.26;100.00
41862;BME280;27537;57.134;-2.136;2023-03-14T00:52:38;98459.88;;;1.27;100.00
41862;BME280;27537;57.134;-2.136;2023-03-14T00:55:05;98493.84;;;1.40;100.00
41862;BME280;27537;57.134;-2.136;2023-03-14T00:57:32;98475.69;;;1.18;100.00
41862;BME280;27537;57.134;-2.136;2023-03-14T00:59:59;98499.19;;;1.34;100.00
41862;BME280;27537;57.134;-2.136;2023-03-14T01:02:26;98506.00;;;1.37;100.00
41862;BME280;27537;57.134;-2.136;2023-03-14T01:04:52;98480.84;;;1.18;100.00
41862;BME280;27537;57.134;-2.136;2023-03-14T01:07:19;98516.47;;;1.32;100.00
41862;BME280;27537;57.134;-2.136;2023-03-14T01:09:46;98476.16;;;1.04;100.00
41862;BME280;27537;57.134;-2.136;2023-03-14T01:12:12;98514.84;;;1.29;100.00
41862;BME280;27537;57.134;-2.136;2023-03-14T01:14:39;98481.94;;;0.87;100.00
41862;BME280;27537;57.134;-2.136;2023-03-14T01:17:06;98525.41;;;1.22;100.00
41862;BME280;27537;57.134;-2.136;2023-03-14T01:19:33;98551.66;;;1.33;100.00
41862;BME280;27537;57.134;-2.136;2023-03-14T01:21:59;98541.59;;;1.25;100.00
41862;BME280;27537;57.134;-2.136;2023-03-14T01:24:28;98533.50;;;1.11;100.00
41862;BME280;27537;57.134;-2.136;2023-03-14T01:26:54;98532.03;;;1.04;100.00
41862;BME280;27537;57.134;-2.136;2023-03-14T01:29:21;98530.53;;;0.98;100.00
41862;BME280;27537;57.134;-2.136;2023-03-14T01:31:48;98543.25;;;1.03;100.00
41862;BME280;27537;57.134;-2.136;2023-03-14T01:34:15;98505.44;;;0.78;100.00
41862;BME280;27537;57.134;-2.136;2023-03-14T01:36:41;98553.50;;;1.04;100.00
41862;BME280;27537;57.134;-2.136;2023-03-14T01:39:08;98539.44;;;0.88;100.00
41862;BME280;27537;57.134;-2.136;2023-03-14T01:41:36;98544.00;;;0.80;100.00
41862;BME280;27537;57.134;-2.136;2023-03-14T01:44:03;98553.84;;;0.93;100.00
41862;BME280;27537;57.134;-2.136;2023-03-14T01:46:43;98588.59;;;1.08;100.00
41862;BME280;27537;57.134;-2.136;2023-03-14T01:52:03;98582.31;;;0.90;100.00
41862;BME280;27537;57.134;-2.136;2023-03-14T01:54:36;98571.50;;;0.79;100.00
41862;BME280;27537;57.134;-2.136;2023-03-14T01:59:38;98601.66;;;0.75;100.00
41862;BME280;27537;57.134;-2.136;2023-03-14T02:02:07;98594.00;;;0.74;100.00
41862;BME280;27537;57.134;-2.136;2023-03-14T02:04:37;98606.88;;;0.74;100.00
41862;BME280;27537;57.134;-2.136;2023-03-14T02:07:20;98605.06;;;0.76;100.00
41862;BME280;27537;57.134;-2.136;2023-03-14T02:09:49;98595.72;;;0.73;100.00
41862;BME280;27537;57.134;-2.136;2023-03-14T02:12:17;98602.38;;;0.81;100.00
41862;BME280;27537;57.134;-2.136;2023-03-14T02:14:44;98600.06;;;0.73;100.00
41862;BME280;27537;57.134;-2.136;2023-03-14T02:17:16;98619.19;;;0.92;100.00
41862;BME280;27537;57.134;-2.136;2023-03-14T02:22:12;98630.41;;;0.90;100.00
41862;BME280;27537;57.134;-2.136;2023-03-14T02:27:25;98594.41;;;0.60;100.00
41862;BME280;27537;57.134;-2.136;2023-03-14T02:29:59;98638.19;;;0.88;100.00
41862;BME280;27537;57.134;-2.136;2023-03-14T02:32:29;98637.56;;;0.82;100.00
41862;BME280;27537;57.134;-2.136;2023-03-14T02:34:59;98633.66;;;0.68;100.00
41862;BME280;27537;57.134;-2.136;2023-03-14T02:37:41;98607.78;;;0.45;100.00
41862;BME280;27537;57.134;-2.136;2023-03-14T02:40:09;98638.72;;;0.71;100.00
41862;BME280;27537;57.134;-2.136;2023-03-14T02:42:36;98637.19;;;0.66;100.00
41862;BME280;27537;57.134;-2.136;2023-03-14T02:47:44;98632.97;;;0.63;100.00
41862;BME280;27537;57.134;-2.136;2023-03-14T02:50:17;98644.97;;;0.64;100.00
41862;BME280;27537;57.134;-2.136;2023-03-14T02:52:45;98616.22;;;0.50;100.00
41862;BME280;27537;57.134;-2.136;2023-03-14T02:55:12;98647.59;;;0.63;100.00
41862;BME280;27537;57.134;-2.136;2023-03-14T02:57:39;98634.13;;;0.53;100.00
41862;BME280;27537;57.134;-2.136;2023-03-14T03:00:06;98633.41;;;0.48;100.00
41862;BME280;27537;57.134;-2.136;2023-03-14T03:02:34;98651.22;;;0.55;100.00
41862;BME280;27537;57.134;-2.136;2023-03-14T03:05:01;98657.19;;;0.57;100.00
41862;BME280;27537;57.134;-2.136;2023-03-14T03:07:27;98640.47;;;0.43;100.00
41862;BME280;27537;57.134;-2.136;2023-03-14T03:09:54;98658.56;;;0.40;100.00
41862;BME280;27537;57.134;-2.136;2023-03-14T03:12:21;98648.06;;;0.46;100.00
41862;BME280;27537;57.134;-2.136;2023-03-14T03:14:48;98654.88;;;0.48;100.00
41862;BME280;27537;57.134;-2.136;2023-03-14T03:17:14;98642.50;;;0.31;100.00
41862;BME280;27537;57.134;-2.136;2023-03-14T03:19:41;98647.69;;;0.30;100.00
41862;BME280;27537;57.134;-2.136;2023-03-14T03:22:08;98649.81;;;0.15;100.00
41862;BME280;27537;57.134;-2.136;2023-03-14T03:24:35;98647.25;;;0.15;100.00
41862;BME280;27537;57.134;-2.136;2023-03-14T03:27:01;98631.31;;;0.03;100.00
41862;BME280;27537;57.134;-2.136;2023-03-14T03:29:28;98624.16;;;0.12;100.00
41862;BME280;27537;57.134;-2.136;2023-03-14T03:31:55;98658.03;;;0.28;100.00
41862;BME280;27537;57.134;-2.136;2023-03-14T03:34:22;98633.31;;;0.23;100.00
41862;BME280;27537;57.134;-2.136;2023-03-14T03:36:48;98671.50;;;0.38;100.00
41862;BME280;27537;57.134;-2.136;2023-03-14T03:39:15;98673.28;;;0.36;100.00
41862;BME280;27537;57.134;-2.136;2023-03-14T03:41:42;98657.53;;;0.15;100.00
41862;BME280;27537;57.134;-2.136;2023-03-14T03:44:08;98653.50;;;0.07;100.00
41862;BME280;27537;57.134;-2.136;2023-03-14T03:46:35;98703.53;;;0.28;100.00
41862;BME280;27537;57.134;-2.136;2023-03-14T03:49:02;98700.94;;;0.28;100.00
41862;BME280;27537;57.134;-2.136;2023-03-14T03:51:28;98681.53;;;0.16;100.00
41862;BME280;27537;57.134;-2.136;2023-03-14T03:53:56;98671.91;;;0.23;100.00
41862;BME280;27537;57.134;-2.136;2023-03-14T03:56:23;98685.81;;;0.17;100.00
41862;BME280;27537;57.134;-2.136;2023-03-14T03:58:50;98731.38;;;0.45;100.00
41862;BME280;27537;57.134;-2.136;2023-03-14T04:01:17;98681.81;;;0.07;100.00
41862;BME280;27537;57.134;-2.136;2023-03-14T04:03:44;98738.69;;;0.29;100.00
41862;BME280;27537;57.134;-2.136;2023-03-14T04:06:12;98745.47;;;0.31;100.00
41862;BME280;27537;57.134;-2.136;2023-03-14T04:08:39;98712.53;;;0.13;100.00
41862;BME280;27537;57.134;-2.136;2023-03-14T04:11:10;98757.63;;;0.26;100.00
41862;BME280;27537;57.134;-2.136;2023-03-14T04:13:37;98727.84;;;0.16;100.00
41862;BME280;27537;57.134;-2.136;2023-03-14T04:16:19;98728.13;;;0.07;100.00
41862;BME280;27537;57.134;-2.136;2023-03-14T04:18:46;98730.03;;;0.00;100.00
41862;BME280;27537;57.134;-2.136;2023-03-14T04:21:13;98732.66;;;-0.02;100.00
41862;BME280;27537;57.134;-2.136;2023-03-14T04:23:40;98716.81;;;-0.19;100.00
41862;BME280;27537;57.134;-2.136;2023-03-14T04:26:07;98776.63;;;0.22;100.00
41862;BME280;27537;57.134;-2.136;2023-03-14T04:28:34;98737.25;;;-0.14;100.00
41862;BME280;27537;57.134;-2.136;2023-03-14T04:31:10;98726.09;;;-0.13;100.00
41862;BME280;27537;57.134;-2.136;2023-03-14T04:33:37;98766.75;;;0.05;100.00
41862;BME280;27537;57.134;-2.136;2023-03-14T04:36:05;98780.19;;;0.16;100.00
41862;BME280;27537;57.134;-2.136;2023-03-14T04:38:32;98729.16;;;-0.32;100.00
41862;BME280;27537;57.134;-2.136;2023-03-14T04:41:00;98743.22;;;-0.12;100.00
41862;BME280;27537;57.134;-2.136;2023-03-14T04:43:27;98790.59;;;0.12;100.00
41862;BME280;27537;57.134;-2.136;2023-03-14T04:45:55;98782.16;;;0.07;100.00
41862;BME280;27537;57.134;-2.136;2023-03-14T04:48:22;98785.47;;;0.12;100.00
41862;BME280;27537;57.134;-2.136;2023-03-14T04:50:49;98769.78;;;-0.12;100.00
41862;BME280;27537;57.134;-2.136;2023-03-14T04:53:17;98778.34;;;-0.11;100.00
41862;BME280;27537;57.134;-2.136;2023-03-14T04:55:55;98732.13;;;-0.49;100.00
41862;BME280;27537;57.134;-2.136;2023-03-14T04:58:23;98788.38;;;-0.02;100.00
41862;BME280;27537;57.134;-2.136;2023-03-14T05:00:50;98773.66;;;-0.30;100.00
41862;BME280;27537;57.134;-2.136;2023-03-14T05:03:18;98798.38;;;-0.24;100.00
41862;BME280;27537;57.134;-2.136;2023-03-14T05:05:45;98797.63;;;-0.28;100.00
41862;BME280;27537;57.134;-2.136;2023-03-14T05:08:12;98775.38;;;-0.30;100.00
41862;BME280;27537;57.134;-2.136;2023-03-14T05:10:39;98815.09;;;-0.06;100.00
41862;BME280;27537;57.134;-2.136;2023-03-14T05:13:06;98757.63;;;-0.41;100.00
41862;BME280;27537;57.134;-2.136;2023-03-14T05:15:32;98740.16;;;-0.63;100.00
41862;BME280;27537;57.134;-2.136;2023-03-14T05:17:59;98810.44;;;-0.26;100.00
41862;BME280;27537;57.134;-2.136;2023-03-14T05:20:26;98745.09;;;-0.53;100.00
41862;BME280;27537;57.134;-2.136;2023-03-14T05:22:53;98789.09;;;-0.30;100.00
41862;BME280;27537;57.134;-2.136;2023-03-14T05:25:19;98787.31;;;-0.28;100.00
41862;BME280;27537;57.134;-2.136;2023-03-14T05:27:46;98812.78;;;-0.17;100.00
41862;BME280;27537;57.134;-2.136;2023-03-14T05:30:13;98819.63;;;-0.16;100.00
41862;BME280;27537;57.134;-2.136;2023-03-14T05:32:40;98765.66;;;-0.53;100.00
41862;BME280;27537;57.134;-2.136;2023-03-14T05:35:07;98831.78;;;-0.23;100.00
41862;BME280;27537;57.134;-2.136;2023-03-14T05:37:34;98791.78;;;-0.34;100.00
41862;BME280;27537;57.134;-2.136;2023-03-14T05:40:01;98846.78;;;-0.06;100.00
41862;BME280;27537;57.134;-2.136;2023-03-14T05:42:27;98797.00;;;-0.39;100.00
41862;BME280;27537;57.134;-2.136;2023-03-14T05:44:54;98776.88;;;-0.56;100.00
41862;BME280;27537;57.134;-2.136;2023-03-14T05:47:21;98825.19;;;-0.34;100.00
41862;BME280;27537;57.134;-2.136;2023-03-14T05:49:48;98807.50;;;-0.47;100.00
41862;BME280;27537;57.134;-2.136;2023-03-14T05:52:15;98781.28;;;-0.63;100.00
41862;BME280;27537;57.134;-2.136;2023-03-14T05:54:42;98833.13;;;-0.44;100.00
41862;BME280;27537;57.134;-2.136;2023-03-14T05:57:09;98842.50;;;-0.41;100.00
41862;BME280;27537;57.134;-2.136;2023-03-14T05:59:35;98804.75;;;-0.77;100.00
41862;BME280;27537;57.134;-2.136;2023-03-14T06:02:05;98854.69;;;-0.49;100.00
41862;BME280;27537;57.134;-2.136;2023-03-14T06:04:31;98835.06;;;-0.53;100.00
41862;BME280;27537;57.134;-2.136;2023-03-14T06:06:58;98824.38;;;-0.72;100.00
41862;BME280;27537;57.134;-2.136;2023-03-14T06:09:25;98851.59;;;-0.64;100.00
41862;BME280;27537;57.134;-2.136;2023-03-14T06:11:52;98837.84;;;-0.63;100.00
41862;BME280;27537;57.134;-2.136;2023-03-14T06:14:19;98822.75;;;-0.78;100.00
41862;BME280;27537;57.134;-2.136;2023-03-14T06:16:45;98841.47;;;-0.71;100.00
41862;BME280;27537;57.134;-2.136;2023-03-14T06:19:14;98822.06;;;-0.85;100.00
41862;BME280;27537;57.134;-2.136;2023-03-14T06:21:41;98868.56;;;-0.56;100.00
41862;BME280;27537;57.134;-2.136;2023-03-14T06:24:08;98850.50;;;-0.55;100.00
41862;BME280;27537;57.134;-2.136;2023-03-14T06:26:35;98869.34;;;-0.53;100.00
41862;BME280;27537;57.134;-2.136;2023-03-14T06:29:01;98854.88;;;-0.59;100.00
41862;BME280;27537;57.134;-2.136;2023-03-14T06:31:30;98885.09;;;-0.29;100.00
41862;BME280;27537;57.134;-2.136;2023-03-14T06:33:58;98916.13;;;-0.37;100.00
41862;BME280;27537;57.134;-2.136;2023-03-14T06:36:25;98883.25;;;-0.62;100.00
41862;BME280;27537;57.134;-2.136;2023-03-14T06:38:51;98919.44;;;-0.32;100.00
41862;BME280;27537;57.134;-2.136;2023-03-14T06:41:18;98868.16;;;-0.77;100.00
41862;BME280;27537;57.134;-2.136;2023-03-14T06:43:45;98900.84;;;-0.45;100.00
41862;BME280;27537;57.134;-2.136;2023-03-14T06:46:12;98852.78;;;-0.80;100.00
41862;BME280;27537;57.134;-2.136;2023-03-14T06:48:39;98852.50;;;-0.66;100.00
41862;BME280;27537;57.134;-2.136;2023-03-14T06:51:05;98849.19;;;-0.73;100.00
41862;BME280;27537;57.134;-2.136;2023-03-14T06:53:33;98884.69;;;-0.50;100.00
41862;BME280;27537;57.134;-2.136;2023-03-14T06:56:00;98878.69;;;-0.49;100.00
41862;BME280;27537;57.134;-2.136;2023-03-14T06:58:26;98887.63;;;-0.28;100.00
41862;BME280;27537;57.134;-2.136;2023-03-14T07:00:53;98884.16;;;-0.27;100.00
41862;BME280;27537;57.134;-2.136;2023-03-14T07:03:21;98874.09;;;-0.36;100.00
41862;BME280;27537;57.134;-2.136;2023-03-14T07:05:48;98927.47;;;-0.08;100.00
41862;BME280;27537;57.134;-2.136;2023-03-14T07:08:15;98920.78;;;-0.15;100.00
41862;BME280;27537;57.134;-2.136;2023-03-14T07:10:42;98933.41;;;-0.05;100.00
41862;BME280;27537;57.134;-2.136;2023-03-14T07:13:08;98858.63;;;-0.34;100.00
41862;BME280;27537;57.134;-2.136;2023-03-14T07:15:35;98914.47;;;-0.02;100.00
41862;BME280;27537;57.134;-2.136;2023-03-14T07:18:03;98875.38;;;-0.18;100.00
41862;BME280;27537;57.134;-2.136;2023-03-14T07:20:29;98934.50;;;0.21;100.00
41862;BME280;27537;57.134;-2.136;2023-03-14T07:22:58;98938.91;;;0.16;100.00
41862;BME280;27537;57.134;-2.136;2023-03-14T07:25:29;98933.75;;;0.16;100.00
41862;BME280;27537;57.134;-2.136;2023-03-14T07:27:56;98935.34;;;0.23;100.00
41862;BME280;27537;57.134;-2.136;2023-03-14T07:30:23;98924.50;;;0.45;100.00
41862;BME280;27537;57.134;-2.136;2023-03-14T07:32:49;98913.06;;;1.19;100.00
41862;BME280;27537;57.134;-2.136;2023-03-14T07:35:19;98922.09;;;1.62;100.00
41862;BME280;27537;57.134;-2.136;2023-03-14T07:37:46;98913.94;;;2.04;100.00
41862;BME280;27537;57.134;-2.136;2023-03-14T07:40:12;98955.22;;;2.04;100.00
41862;BME280;27537;57.134;-2.136;2023-03-14T07:42:42;98961.88;;;2.65;100.00
41862;BME280;27537;57.134;-2.136;2023-03-14T07:45:10;98992.84;;;3.42;100.00
41862;BME280;27537;57.134;-2.136;2023-03-14T07:47:37;98973.75;;;3.21;100.00
41862;BME280;27537;57.134;-2.136;2023-03-14T07:50:05;98982.31;;;3.70;100.00
41862;BME280;27537;57.134;-2.136;2023-03-14T07:52:32;99000.88;;;3.82;100.00
41862;BME280;27537;57.134;-2.136;2023-03-14T07:54:59;99008.78;;;4.23;100.00
41862;BME280;27537;57.134;-2.136;2023-03-14T07:57:26;98998.44;;;4.01;100.00
41862;BME280;27537;57.134;-2.136;2023-03-14T07:59:52;98953.84;;;3.70;100.00
41862;BME280;27537;57.134;-2.136;2023-03-14T08:02:19;99002.88;;;4.19;100.00
41862;BME280;27537;57.134;-2.136;2023-03-14T08:04:49;99002.56;;;3.83;100.00
41862;BME280;27537;57.134;-2.136;2023-03-14T08:07:16;99006.13;;;4.24;100.00
41862;BME280;27537;57.134;-2.136;2023-03-14T08:09:43;99001.31;;;4.59;100.00
41862;BME280;27537;57.134;-2.136;2023-03-14T08:12:10;98991.53;;;4.66;100.00
41862;BME280;27537;57.134;-2.136;2023-03-14T08:14:37;98999.00;;;4.94;100.00
41862;BME280;27537;57.134;-2.136;2023-03-14T08:17:04;99005.22;;;4.47;100.00
41862;BME280;27537;57.134;-2.136;2023-03-14T08:19:31;98993.16;;;3.80;100.00
41862;BME280;27537;57.134;-2.136;2023-03-14T08:21:58;99019.38;;;4.38;100.00
41862;BME280;27537;57.134;-2.136;2023-03-14T08:24:25;99018.66;;;3.67;100.00
41862;BME280;27537;57.134;-2.136;2023-03-14T08:26:52;99038.00;;;3.57;100.00
41862;BME280;27537;57.134;-2.136;2023-03-14T08:29:19;99035.88;;;3.68;100.00
41862;BME280;27537;57.134;-2.136;2023-03-14T08:31:46;98987.03;;;3.59;100.00
41862;BME280;27537;57.134;-2.136;2023-03-14T08:34:15;99021.78;;;3.99;100.00
41862;BME280;27537;57.134;-2.136;2023-03-14T08:36:42;99009.94;;;3.46;100.00
41862;BME280;27537;57.134;-2.136;2023-03-14T08:39:09;99020.78;;;3.79;100.00
41862;BME280;27537;57.134;-2.136;2023-03-14T08:41:36;99011.28;;;3.56;100.00
41862;BME280;27537;57.134;-2.136;2023-03-14T08:44:11;99017.59;;;3.49;100.00
41862;BME280;27537;57.134;-2.136;2023-03-14T08:46:44;99047.88;;;3.71;100.00
41862;BME280;27537;57.134;-2.136;2023-03-14T08:49:11;99035.56;;;3.52;100.00
41862;BME280;27537;57.134;-2.136;2023-03-14T08:51:38;99029.38;;;3.33;100.00
41862;BME280;27537;57.134;-2.136;2023-03-14T08:54:05;99047.69;;;3.99;100.00
41862;BME280;27537;57.134;-2.136;2023-03-14T08:56:31;99045.88;;;4.01;100.00
41862;BME280;27537;57.134;-2.136;2023-03-14T08:58:58;99043.84;;;4.31;100.00
41862;BME280;27537;57.134;-2.136;2023-03-14T09:01:25;99070.00;;;4.47;100.00
41862;BME280;27537;57.134;-2.136;2023-03-14T09:03:52;99019.31;;;3.96;100.00
41862;BME280;27537;57.134;-2.136;2023-03-14T09:06:19;99072.91;;;4.40;100.00
41862;BME280;27537;57.134;-2.136;2023-03-14T09:08:46;99007.28;;;3.71;100.00
41862;BME280;27537;57.134;-2.136;2023-03-14T09:11:13;99054.38;;;4.05;100.00
41862;BME280;27537;57.134;-2.136;2023-03-14T09:13:40;99046.22;;;3.68;100.00
41862;BME280;27537;57.134;-2.136;2023-03-14T09:16:07;99041.31;;;3.84;100.00
41862;BME280;27537;57.134;-2.136;2023-03-14T09:18:35;99037.75;;;4.10;100.00
41862;BME280;27537;57.134;-2.136;2023-03-14T09:21:02;99074.94;;;3.86;100.00
41862;BME280;27537;57.134;-2.136;2023-03-14T09:23:28;99053.19;;;3.42;100.00
41862;BME280;27537;57.134;-2.136;2023-03-14T09:25:59;99061.16;;;3.36;100.00
41862;BME280;27537;57.134;-2.136;2023-03-14T09:28:26;99041.78;;;3.23;100.00
41862;BME280;27537;57.134;-2.136;2023-03-14T09:30:53;99106.03;;;3.35;100.00
41862;BME280;27537;57.134;-2.136;2023-03-14T09:33:20;99079.16;;;3.14;100.00
41862;BME280;27537;57.134;-2.136;2023-03-14T09:35:47;99080.69;;;3.20;100.00
41862;BME280;27537;57.134;-2.136;2023-03-14T09:38:14;99100.88;;;3.35;100.00
41862;BME280;27537;57.134;-2.136;2023-03-14T09:40:42;99108.34;;;2.91;100.00
41862;BME280;27537;57.134;-2.136;2023-03-14T09:43:11;99165.94;;;2.68;100.00
41862;BME280;27537;57.134;-2.136;2023-03-14T09:45:41;99096.47;;;2.01;100.00
41862;BME280;27537;57.134;-2.136;2023-03-14T09:48:17;99170.72;;;2.52;100.00
41862;BME280;27537;57.134;-2.136;2023-03-14T09:50:49;99135.53;;;2.20;100.00
41862;BME280;27537;57.134;-2.136;2023-03-14T09:53:18;99137.59;;;2.07;100.00
41862;BME280;27537;57.134;-2.136;2023-03-14T09:55:47;99157.47;;;2.03;100.00
41862;BME280;27537;57.134;-2.136;2023-03-14T09:58:20;99192.56;;;2.11;100.00
41862;BME280;27537;57.134;-2.136;2023-03-14T10:00:49;99194.44;;;2.05;100.00
41862;BME280;27537;57.134;-2.136;2023-03-14T10:05:57;99202.41;;;1.65;100.00
41862;BME280;27537;57.134;-2.136;2023-03-14T10:08:25;99241.69;;;2.09;100.00
41862;BME280;27537;57.134;-2.136;2023-03-14T10:10:52;99224.72;;;1.66;100.00
41862;BME280;27537;57.134;-2.136;2023-03-14T10:13:21;99268.50;;;1.69;100.00
41862;BME280;27537;57.134;-2.136;2023-03-14T10:15:55;99222.31;;;1.60;100.00
41862;BME280;27537;57.134;-2.136;2023-03-14T10:18:25;99190.31;;;1.31;100.00
41862;BME280;27537;57.134;-2.136;2023-03-14T10:21:21;99258.84;;;2.10;100.00
41862;BME280;27537;57.134;-2.136;2023-03-14T10:23:52;99214.88;;;1.47;100.00
41862;BME280;27537;57.134;-2.136;2023-03-14T10:26:28;99262.56;;;2.00;100.00
41862;BME280;27537;57.134;-2.136;2023-03-14T10:29:04;99293.81;;;2.23;100.00
41862;BME280;27537;57.134;-2.136;2023-03-14T10:31:53;99296.00;;;2.37;100.00
41862;BME280;27537;57.134;-2.136;2023-03-14T10:34:26;99290.06;;;2.34;100.00
41862;BME280;27537;57.134;-2.136;2023-03-14T10:37:24;99293.59;;;2.62;100.00
41862;BME280;27537;57.134;-2.136;2023-03-14T10:39:53;99292.88;;;2.89;100.00
41862;BME280;27537;57.134;-2.136;2023-03-14T10:42:32;99310.59;;;2.71;100.00
41862;BME280;27537;57.134;-2.136;2023-03-14T10:45:03;99289.44;;;2.87;100.00
41862;BME280;27537;57.134;-2.136;2023-03-14T10:47:32;99322.06;;;2.92;100.00
41862;BME280;27537;57.134;-2.136;2023-03-14T10:50:23;99355.88;;;3.14;100.00
41862;BME280;27537;57.134;-2.136;2023-03-14T10:52:52;99356.09;;;3.36;100.00
41862;BME280;27537;57.134;-2.136;2023-03-14T10:55:40;99387.28;;;3.02;100.00
41862;BME280;27537;57.134;-2.136;2023-03-14T10:58:28;99378.25;;;3.45;100.00
41862;BME280;27537;57.134;-2.136;2023-03-14T11:15:55;99407.84;;;3.93;100.00
41862;BME280;27537;57.134;-2.136;2023-03-14T11:18:16;99422.22;;;3.75;100.00
41862;BME280;27537;57.134;-2.136;2023-03-14T11:20:52;99395.03;;;3.61;100.00
41862;BME280;27537;57.134;-2.136;2023-03-14T11:23:23;99412.31;;;3.88;100.00
41862;BME280;27537;57.134;-2.136;2023-03-14T11:26:21;99421.63;;;3.95;100.00
41862;BME280;27537;57.134;-2.136;2023-03-14T11:28:57;99413.69;;;3.99;100.00
41862;BME280;27537;57.134;-2.136;2023-03-14T11:31:27;99390.47;;;3.96;100.00
41862;BME280;27537;57.134;-2.136;2023-03-14T11:34:01;99425.16;;;4.19;100.00
41862;BME280;27537;57.134;-2.136;2023-03-14T11:36:38;99431.00;;;4.26;100.00
41862;BME280;27537;57.134;-2.136;2023-03-14T11:39:15;99424.09;;;4.25;100.00
41862;BME280;27537;57.134;-2.136;2023-03-14T11:41:47;99445.84;;;4.21;100.00
41862;BME280;27537;57.134;-2.136;2023-03-14T11:44:31;99456.28;;;4.44;100.00
41862;BME280;27537;57.134;-2.136;2023-03-14T11:47:09;99461.28;;;4.24;100.00
41862;BME280;27537;57.134;-2.136;2023-03-14T11:49:56;99459.91;;;4.65;100.00
41862;BME280;27537;57.134;-2.136;2023-03-14T11:52:32;99448.81;;;4.62;100.00
41862;BME280;27537;57.134;-2.136;2023-03-14T11:55:05;99475.06;;;5.28;100.00
41862;BME280;27537;57.134;-2.136;2023-03-14T11:57:34;99478.31;;;4.84;100.00
41862;BME280;27537;57.134;-2.136;2023-03-14T12:00:22;99467.59;;;4.93;100.00
41862;BME280;27537;57.134;-2.136;2023-03-14T12:06:09;99501.97;;;5.00;100.00
41862;BME280;27537;57.134;-2.136;2023-03-14T12:08:58;99502.47;;;4.85;100.00
41862;BME280;27537;57.134;-2.136;2023-03-14T12:11:48;99508.56;;;4.59;100.00
41862;BME280;27537;57.134;-2.136;2023-03-14T12:14:34;99502.31;;;4.37;100.00
41862;BME280;27537;57.134;-2.136;2023-03-14T12:19:40;99494.69;;;4.60;100.00
41862;BME280;27537;57.134;-2.136;2023-03-14T12:24:38;99489.16;;;4.95;100.00
41862;BME280;27537;57.134;-2.136;2023-03-14T12:27:13;99487.56;;;5.17;100.00
41862;BME280;27537;57.134;-2.136;2023-03-14T12:30:01;99473.22;;;5.06;100.00
41862;BME280;27537;57.134;-2.136;2023-03-14T12:32:29;99444.44;;;4.89;100.00
41862;BME280;27537;57.134;-2.136;2023-03-14T12:35:07;99520.59;;;5.11;100.00
41862;BME280;27537;57.134;-2.136;2023-03-14T12:37:55;99510.50;;;5.04;100.00
41862;BME280;27537;57.134;-2.136;2023-03-14T12:41:13;99542.09;;;5.15;100.00
41862;BME280;27537;57.134;-2.136;2023-03-14T12:43:34;99546.91;;;5.51;100.00
41862;BME280;27537;57.134;-2.136;2023-03-14T12:46:23;99495.94;;;5.00;100.00
41862;BME280;27537;57.134;-2.136;2023-03-14T12:48:55;99540.03;;;5.25;100.00
41862;BME280;27537;57.134;-2.136;2023-03-14T12:51:33;99560.91;;;5.22;100.00
41862;BME280;27537;57.134;-2.136;2023-03-14T12:59:56;99577.69;;;5.11;100.00
41862;BME280;27537;57.134;-2.136;2023-03-14T13:02:38;99531.38;;;4.47;100.00
41862;BME280;27537;57.134;-2.136;2023-03-14T13:05:22;99612.88;;;4.93;100.00
41862;BME280;27537;57.134;-2.136;2023-03-14T13:10:23;99617.88;;;3.84;100.00
41862;BME280;27537;57.134;-2.136;2023-03-14T13:15:29;99599.69;;;3.87;100.00
41862;BME280;27537;57.134;-2.136;2023-03-14T13:18:17;99617.50;;;4.27;100.00
41862;BME280;27537;57.134;-2.136;2023-03-14T13:20:50;99614.31;;;4.17;100.00
41862;BME280;27537;57.134;-2.136;2023-03-14T13:23:26;99573.75;;;3.88;100.00
41862;BME280;27537;57.134;-2.136;2023-03-14T13:25:54;99576.84;;;4.29;100.00
41862;BME280;27537;57.134;-2.136;2023-03-14T13:28:21;99594.72;;;4.38;100.00
41862;BME280;27537;57.134;-2.136;2023-03-14T13:30:50;99590.94;;;4.21;100.00
41862;BME280;27537;57.134;-2.136;2023-03-14T13:33:22;99595.41;;;3.84;100.00
41862;BME280;27537;57.134;-2.136;2023-03-14T13:36:01;99612.69;;;4.15;100.00
41862;BME280;27537;57.134;-2.136;2023-03-14T13:38:34;99639.47;;;4.14;100.00
41862;BME280;27537;57.134;-2.136;2023-03-14T13:41:06;99628.44;;;4.65;100.00
41862;BME280;27537;57.134;-2.136;2023-03-14T13:43:39;99616.88;;;4.49;100.00
41862;BME280;27537;57.134;-2.136;2023-03-14T13:46:15;99618.03;;;4.38;100.00
41862;BME280;27537;57.134;-2.136;2023-03-14T13:48:46;99648.38;;;4.91;100.00
41862;BME280;27537;57.134;-2.136;2023-03-14T13:51:16;99646.09;;;4.82;100.00